createdAt,value
2023-05-19T00:00:33.569Z,1.80
2023-05-19T00:01:37.790Z,1.90
2023-05-19T00:02:40.002Z,1.90
2023-05-19T00:03:52.749Z,1.60
2023-05-19T00:04:55.135Z,2.13
2023-05-19T00:07:01.458Z,2.00
2023-05-19T00:08:03.976Z,1.98
2023-05-19T00:09:07.735Z,1.77
2023-05-19T00:10:10.398Z,2.10
2023-05-19T00:11:12.326Z,1.70
2023-05-19T00:12:14.529Z,2.05
2023-05-19T00:13:16.559Z,2.00
2023-05-19T00:14:18.633Z,2.28
2023-05-19T00:15:20.710Z,2.00
2023-05-19T00:16:23.865Z,2.00
2023-05-19T00:17:26.062Z,1.88
2023-05-19T00:18:29.929Z,2.00
2023-05-19T00:19:32.509Z,1.98
2023-05-19T00:20:34.642Z,2.50
2023-05-19T00:21:38.351Z,2.20
2023-05-19T00:22:40.522Z,1.85
2023-05-19T00:23:42.487Z,2.45
2023-05-19T00:24:44.297Z,2.70
2023-05-19T00:25:46.071Z,2.10
2023-05-19T00:26:47.820Z,2.05
2023-05-19T00:27:49.607Z,2.20
2023-05-19T00:28:51.376Z,1.75
2023-05-19T00:29:53.157Z,1.98
2023-05-19T00:30:55.130Z,2.13
2023-05-19T00:31:56.936Z,2.15
2023-05-19T00:32:58.814Z,2.33
2023-05-19T00:34:01.038Z,2.20
2023-05-19T00:35:02.834Z,2.63
2023-05-19T00:36:05.932Z,2.20
2023-05-19T00:37:07.725Z,1.98
2023-05-19T00:38:09.472Z,1.83
2023-05-19T00:39:11.303Z,2.90
2023-05-19T00:40:13.445Z,2.05
2023-05-19T00:41:15.229Z,2.08
2023-05-19T00:42:17.092Z,2.50
2023-05-19T00:43:18.867Z,2.00
2023-05-19T00:44:20.629Z,2.30
2023-05-19T00:45:22.464Z,2.72
2023-05-19T00:46:24.459Z,2.25
2023-05-19T00:47:26.326Z,2.50
2023-05-19T00:48:28.217Z,2.60
2023-05-19T00:49:29.977Z,2.65
2023-05-19T00:50:32.135Z,2.30
2023-05-19T00:51:34.182Z,2.25
2023-05-19T00:52:36.041Z,2.40
2023-05-19T00:53:37.823Z,2.50
2023-05-19T00:54:39.632Z,2.20
2023-05-19T00:55:42.204Z,2.50
2023-05-19T00:56:44.049Z,2.70
2023-05-19T00:57:47.152Z,2.75
2023-05-19T00:58:51.599Z,2.17
2023-05-19T00:59:53.433Z,2.75
2023-05-19T01:01:03.120Z,2.40
2023-05-19T01:02:05.110Z,2.40
2023-05-19T01:03:13.388Z,2.40
2023-05-19T01:04:22.127Z,2.42
2023-05-19T01:05:23.988Z,3.92
2023-05-19T01:06:27.893Z,2.22
2023-05-19T01:07:30.266Z,2.70
2023-05-19T01:08:33.214Z,2.05
2023-05-19T01:09:35.069Z,2.45
2023-05-19T01:10:37.063Z,2.53
2023-05-19T01:11:38.854Z,2.40
2023-05-19T01:12:41.256Z,2.50
2023-05-19T01:13:43.913Z,2.60
2023-05-19T01:14:45.719Z,2.47
2023-05-19T01:16:21.539Z,2.58
2023-05-19T01:17:26.633Z,2.58
2023-05-19T01:18:51.069Z,2.72
2023-05-19T01:20:19.233Z,2.63
2023-05-19T01:21:44.545Z,2.55
2023-05-19T01:23:16.902Z,2.50
2023-05-19T01:24:46.932Z,2.28
2023-05-19T01:26:00.999Z,2.45
2023-05-19T01:27:08.769Z,2.33
2023-05-19T01:28:25.206Z,2.75
2023-05-19T01:30:08.814Z,2.47
2023-05-19T01:31:12.736Z,2.78
2023-05-19T01:32:19.923Z,2.60
2023-05-19T01:33:23.848Z,2.25
2023-05-19T01:34:27.508Z,2.75
2023-05-19T01:35:31.017Z,2.35
2023-05-19T01:36:33.929Z,2.50
2023-05-19T01:37:37.673Z,2.20
2023-05-19T01:38:40.327Z,2.28
2023-05-19T01:39:45.300Z,2.13
2023-05-19T01:40:49.694Z,2.40
2023-05-19T01:41:52.568Z,1.88
2023-05-19T01:42:57.692Z,1.90
2023-05-19T01:44:00.605Z,2.50
2023-05-19T01:45:03.351Z,1.80
2023-05-19T01:46:05.804Z,2.20
2023-05-19T01:47:08.158Z,2.03
2023-05-19T01:48:11.301Z,2.65
2023-05-19T01:49:13.780Z,2.47
2023-05-19T01:50:15.893Z,2.40
2023-05-19T01:51:17.636Z,1.85
2023-05-19T01:52:19.511Z,2.40
2023-05-19T01:53:21.367Z,2.42
2023-05-19T01:54:23.377Z,2.67
2023-05-19T01:55:25.794Z,2.35
2023-05-19T01:56:41.502Z,2.67
2023-05-19T01:58:17.290Z,2.60
2023-05-19T01:59:37.364Z,2.50
2023-05-19T02:00:58.822Z,2.30
2023-05-19T02:02:05.965Z,2.50
2023-05-19T02:03:07.742Z,2.50
2023-05-19T02:04:15.430Z,2.38
2023-05-19T02:05:38.453Z,2.72
2023-05-19T02:06:49.899Z,3.25
2023-05-19T02:08:00.525Z,2.60
2023-05-19T02:09:16.175Z,2.30
2023-05-19T02:10:28.227Z,2.35
2023-05-19T02:11:38.618Z,2.88
2023-05-19T02:12:41.600Z,2.42
2023-05-19T02:13:49.325Z,2.45
2023-05-19T02:15:13.469Z,2.78
2023-05-19T02:16:17.762Z,2.83
2023-05-19T02:17:20.998Z,2.70
2023-05-19T02:18:25.213Z,2.35
2023-05-19T02:19:34.051Z,2.72
2023-05-19T02:20:35.808Z,2.45
2023-05-19T02:21:37.553Z,2.50
2023-05-19T02:22:40.552Z,2.47
2023-05-19T02:23:42.322Z,2.63
2023-05-19T02:24:46.652Z,2.40
2023-05-19T02:25:48.789Z,2.00
2023-05-19T02:26:52.071Z,2.33
2023-05-19T02:27:54.947Z,2.47
2023-05-19T02:28:56.684Z,2.30
2023-05-19T02:29:58.465Z,2.38
2023-05-19T02:31:00.228Z,2.40
2023-05-19T02:32:02.354Z,2.80
2023-05-19T02:33:06.645Z,2.22
2023-05-19T02:34:08.848Z,2.47
2023-05-19T02:35:10.641Z,2.53
2023-05-19T02:36:14.588Z,2.78
2023-05-19T02:37:17.857Z,2.60
2023-05-19T02:38:19.601Z,2.92
2023-05-19T02:39:21.397Z,2.50
2023-05-19T02:40:23.414Z,2.65
2023-05-19T02:41:25.151Z,2.83
2023-05-19T02:42:26.900Z,2.40
2023-05-19T02:43:30.665Z,2.58
2023-05-19T02:44:32.451Z,2.88
2023-05-19T02:45:34.242Z,2.63
2023-05-19T02:46:36.404Z,2.25
2023-05-19T02:47:38.515Z,2.35
2023-05-19T02:48:40.268Z,2.67
2023-05-19T02:49:43.153Z,2.63
2023-05-19T02:50:44.980Z,2.72
2023-05-19T02:51:46.708Z,2.80
2023-05-19T02:52:48.443Z,2.88
2023-05-19T02:53:50.506Z,2.85
2023-05-19T02:54:52.279Z,2.92
2023-05-19T02:55:54.088Z,2.85
2023-05-19T02:56:56.009Z,2.80
2023-05-19T02:57:57.773Z,2.58
2023-05-19T02:58:59.692Z,3.03
2023-05-19T03:00:02.058Z,3.05
2023-05-19T03:01:04.418Z,2.78
2023-05-19T03:02:06.328Z,2.80
2023-05-19T03:03:10.487Z,2.88
2023-05-19T03:04:14.111Z,2.63
2023-05-19T03:05:15.933Z,2.80
2023-05-19T03:06:18.222Z,2.80
2023-05-19T03:07:25.308Z,3.25
2023-05-19T03:08:27.237Z,2.78
2023-05-19T03:09:29.008Z,3.40
2023-05-19T03:10:31.169Z,2.85
2023-05-19T03:11:33.186Z,2.97
2023-05-19T03:12:35.117Z,2.65
2023-05-19T03:13:36.858Z,3.08
2023-05-19T03:14:38.849Z,3.10
2023-05-19T03:15:42.626Z,3.08
2023-05-19T03:16:44.529Z,3.08
2023-05-19T03:17:46.401Z,3.53
2023-05-19T03:18:48.267Z,2.92
2023-05-19T03:19:51.311Z,3.53
2023-05-19T03:20:54.166Z,2.88
2023-05-19T03:21:56.641Z,3.10
2023-05-19T03:22:58.943Z,2.90
2023-05-19T03:24:01.397Z,3.22
2023-05-19T03:25:03.560Z,3.33
2023-05-19T03:26:05.574Z,3.40
2023-05-19T03:27:07.369Z,3.40
2023-05-19T03:28:09.106Z,3.40
2023-05-19T03:29:10.907Z,3.15
2023-05-19T03:30:13.257Z,3.40
2023-05-19T03:31:15.020Z,3.65
2023-05-19T03:32:16.849Z,3.20
2023-05-19T03:33:18.791Z,3.15
2023-05-19T03:34:22.537Z,3.45
2023-05-19T03:35:24.290Z,3.13
2023-05-19T03:36:32.146Z,3.50
2023-05-19T03:37:34.124Z,3.40
2023-05-19T03:38:36.044Z,3.22
2023-05-19T03:39:37.848Z,3.13
2023-05-19T03:40:39.622Z,3.55
2023-05-19T03:41:41.355Z,2.85
2023-05-19T03:42:43.080Z,3.53
2023-05-19T03:43:44.819Z,3.35
2023-05-19T03:44:46.723Z,2.83
2023-05-19T03:45:48.585Z,2.42
2023-05-19T03:46:50.411Z,3.00
2023-05-19T03:47:52.214Z,2.80
2023-05-19T03:48:53.977Z,3.03
2023-05-19T03:49:56.189Z,2.58
2023-05-19T03:50:58.213Z,3.05
2023-05-19T03:51:59.994Z,3.22
2023-05-19T03:53:01.705Z,3.20
2023-05-19T03:54:04.613Z,2.63
2023-05-19T03:55:07.233Z,3.55
2023-05-19T03:56:11.800Z,2.80
2023-05-19T03:57:14.743Z,3.17
2023-05-19T03:58:16.793Z,2.90
2023-05-19T03:59:18.562Z,3.00
2023-05-19T04:00:20.500Z,3.20
2023-05-19T04:01:22.470Z,2.97
2023-05-19T04:02:24.278Z,2.97
2023-05-19T04:03:26.395Z,2.83
2023-05-19T04:04:28.709Z,3.10
2023-05-19T04:05:30.512Z,2.88
2023-05-19T04:06:32.242Z,3.40
2023-05-19T04:07:34.114Z,3.10
2023-05-19T04:08:35.873Z,3.40
2023-05-19T04:09:37.796Z,2.63
2023-05-19T04:10:39.618Z,3.42
2023-05-19T04:11:42.590Z,3.70
2023-05-19T04:12:44.488Z,2.83
2023-05-19T04:13:46.251Z,3.20
2023-05-19T04:14:48.005Z,3.58
2023-05-19T04:15:49.956Z,2.60
2023-05-19T04:16:52.334Z,3.40
2023-05-19T04:17:54.245Z,2.72
2023-05-19T04:18:56.961Z,3.20
2023-05-19T04:19:58.751Z,3.10
2023-05-19T04:21:00.655Z,3.60
2023-05-19T04:22:02.438Z,3.55
2023-05-19T04:23:04.309Z,3.50
2023-05-19T04:24:06.754Z,5.30
2023-05-19T04:25:09.079Z,5.18
2023-05-19T04:26:10.836Z,3.50
2023-05-19T04:27:12.914Z,3.78
2023-05-19T04:28:18.124Z,3.58
2023-05-19T04:29:19.902Z,3.65
2023-05-19T04:30:22.776Z,3.58
2023-05-19T04:31:25.033Z,3.08
2023-05-19T04:32:26.982Z,3.55
2023-05-19T04:33:29.325Z,3.75
2023-05-19T04:34:31.044Z,3.72
2023-05-19T04:35:32.882Z,3.50
2023-05-19T04:36:34.641Z,3.20
2023-05-19T04:37:37.984Z,3.53
2023-05-19T04:38:40.153Z,3.88
2023-05-19T04:39:46.587Z,3.58
2023-05-19T04:40:50.473Z,3.80
2023-05-19T04:41:54.240Z,3.30
2023-05-19T04:42:56.007Z,3.45
2023-05-19T04:44:00.570Z,3.97
2023-05-19T04:45:05.486Z,3.30
2023-05-19T04:46:12.312Z,3.17
2023-05-19T04:47:15.567Z,2.92
2023-05-19T04:48:17.332Z,3.72
2023-05-19T04:49:19.580Z,3.20
2023-05-19T04:50:21.897Z,3.13
2023-05-19T04:51:29.843Z,3.17
2023-05-19T04:52:32.301Z,3.60
2023-05-19T04:53:34.082Z,4.20
2023-05-19T04:54:35.851Z,3.22
2023-05-19T04:55:38.845Z,3.75
2023-05-19T04:56:40.673Z,3.47
2023-05-19T04:57:42.919Z,3.75
2023-05-19T04:58:44.920Z,3.50
2023-05-19T04:59:46.754Z,4.25
2023-05-19T05:00:48.502Z,3.83
2023-05-19T05:01:50.412Z,3.63
2023-05-19T05:02:52.248Z,3.63
2023-05-19T05:03:55.433Z,4.00
2023-05-19T05:04:58.175Z,4.13
2023-05-19T05:06:02.810Z,3.65
2023-05-19T05:07:04.688Z,4.10
2023-05-19T05:08:07.228Z,3.72
2023-05-19T05:09:08.995Z,3.72
2023-05-19T05:10:10.998Z,3.65
2023-05-19T05:11:13.042Z,3.78
2023-05-19T05:12:15.816Z,4.05
2023-05-19T05:13:17.848Z,3.33
2023-05-19T05:14:19.878Z,3.08
2023-05-19T05:15:24.471Z,3.53
2023-05-19T05:16:26.829Z,3.55
2023-05-19T05:17:28.985Z,3.75
2023-05-19T05:18:31.095Z,3.58
2023-05-19T05:19:33.215Z,4.07
2023-05-19T05:20:35.330Z,3.38
2023-05-19T05:21:37.486Z,3.97
2023-05-19T05:22:39.617Z,3.33
2023-05-19T05:23:41.660Z,3.58
2023-05-19T05:24:43.738Z,3.70
2023-05-19T05:25:47.050Z,3.50
2023-05-19T05:26:49.066Z,3.72
2023-05-19T05:27:50.888Z,3.60
2023-05-19T05:28:52.700Z,3.80
2023-05-19T05:29:54.444Z,3.30
2023-05-19T05:30:57.501Z,3.67
2023-05-19T05:31:59.424Z,3.47
2023-05-19T05:33:02.223Z,3.63
2023-05-19T05:34:04.188Z,3.50
2023-05-19T05:35:06.539Z,3.65
2023-05-19T05:36:08.661Z,3.42
2023-05-19T05:37:11.376Z,3.42
2023-05-19T05:38:14.336Z,3.63
2023-05-19T05:39:16.222Z,3.70
2023-05-19T05:40:18.149Z,3.83
2023-05-19T05:41:19.941Z,3.30
2023-05-19T05:42:21.703Z,3.55
2023-05-19T05:43:23.500Z,3.95
2023-05-19T05:44:25.378Z,3.50
2023-05-19T05:45:27.201Z,3.60
2023-05-19T05:46:29.193Z,3.78
2023-05-19T05:47:31.388Z,3.63
2023-05-19T05:48:33.503Z,3.42
2023-05-19T05:49:39.282Z,3.85
2023-05-19T05:50:44.363Z,3.70
2023-05-19T05:51:57.877Z,3.60
2023-05-19T05:53:07.589Z,3.33
2023-05-19T05:54:12.373Z,3.42
2023-05-19T05:55:15.376Z,3.70
2023-05-19T05:56:17.465Z,3.83
2023-05-19T05:57:19.587Z,3.40
2023-05-19T05:58:21.417Z,3.70
2023-05-19T05:59:23.300Z,3.42
2023-05-19T06:00:25.235Z,3.40
2023-05-19T06:01:26.981Z,3.58
2023-05-19T06:02:30.155Z,3.80
2023-05-19T06:03:32.233Z,3.78
2023-05-19T06:04:34.104Z,3.50
2023-05-19T06:05:36.250Z,3.53
2023-05-19T06:06:38.288Z,3.38
2023-05-19T06:07:41.323Z,4.00
2023-05-19T06:08:43.116Z,4.03
2023-05-19T06:09:44.869Z,3.83
2023-05-19T06:10:47.472Z,4.00
2023-05-19T06:11:49.351Z,4.07
2023-05-19T06:12:51.094Z,4.25
2023-05-19T06:13:52.870Z,4.00
2023-05-19T06:14:54.715Z,4.05
2023-05-19T06:15:56.498Z,4.25
2023-05-19T06:16:58.350Z,4.00
2023-05-19T06:18:00.258Z,4.30
2023-05-19T06:19:02.299Z,4.40
2023-05-19T06:20:08.707Z,4.75
2023-05-19T06:21:10.625Z,4.35
2023-05-19T06:22:12.420Z,4.10
2023-05-19T06:23:14.232Z,4.00
2023-05-19T06:24:15.967Z,4.10
2023-05-19T06:25:17.906Z,4.35
2023-05-19T06:26:19.648Z,3.72
2023-05-19T06:27:21.449Z,4.25
2023-05-19T06:28:23.258Z,4.13
2023-05-19T06:29:25.088Z,4.00
2023-05-19T06:30:26.830Z,3.92
2023-05-19T06:31:29.058Z,3.88
2023-05-19T06:32:31.014Z,4.50
2023-05-19T06:33:32.791Z,3.95
2023-05-19T06:34:34.540Z,4.32
2023-05-19T06:35:36.307Z,4.25
2023-05-19T06:36:38.128Z,4.03
2023-05-19T06:37:39.951Z,4.05
2023-05-19T06:38:41.693Z,4.15
2023-05-19T06:39:43.456Z,4.28
2023-05-19T06:40:45.231Z,4.28
2023-05-19T06:41:48.329Z,5.05
2023-05-19T06:42:50.589Z,4.20
2023-05-19T06:43:52.634Z,4.15
2023-05-19T06:44:56.602Z,4.65
2023-05-19T06:45:58.851Z,4.18
2023-05-19T06:47:00.826Z,3.97
2023-05-19T06:48:03.098Z,3.97
2023-05-19T06:49:04.886Z,4.32
2023-05-19T06:50:06.953Z,4.13
2023-05-19T06:51:10.349Z,3.90
2023-05-19T06:52:12.456Z,4.18
2023-05-19T06:53:14.275Z,3.97
2023-05-19T06:54:16.425Z,4.45
2023-05-19T06:55:21.282Z,4.10
2023-05-19T06:56:23.262Z,4.35
2023-05-19T06:57:25.142Z,4.30
2023-05-19T06:58:27.334Z,4.68
2023-05-19T06:59:29.100Z,3.95
2023-05-19T07:00:30.978Z,3.88
2023-05-19T07:01:32.869Z,4.43
2023-05-19T07:02:34.661Z,4.35
2023-05-19T07:03:37.158Z,4.45
2023-05-19T07:04:39.993Z,4.70
2023-05-19T07:05:41.797Z,4.32
2023-05-19T07:06:43.578Z,6.68
2023-05-19T07:07:45.374Z,5.35
2023-05-19T07:08:47.146Z,4.43
2023-05-19T07:09:49.337Z,4.82
2023-05-19T07:10:51.105Z,4.30
2023-05-19T07:11:52.924Z,4.60
2023-05-19T07:12:54.684Z,4.60
2023-05-19T07:13:56.432Z,4.75
2023-05-19T07:14:58.184Z,4.25
2023-05-19T07:15:59.977Z,4.32
2023-05-19T07:17:01.865Z,4.28
2023-05-19T07:18:03.769Z,4.70
2023-05-19T07:19:05.711Z,4.35
2023-05-19T07:20:10.194Z,4.53
2023-05-19T07:21:12.043Z,4.50
2023-05-19T07:22:13.833Z,4.45
2023-05-19T07:23:17.263Z,4.30
2023-05-19T07:24:21.475Z,4.53
2023-05-19T07:25:23.299Z,4.85
2023-05-19T07:26:25.030Z,4.85
2023-05-19T07:27:26.908Z,4.60
2023-05-19T07:28:30.958Z,4.63
2023-05-19T07:29:32.709Z,5.18
2023-05-19T07:30:34.861Z,4.38
2023-05-19T07:31:37.203Z,4.88
2023-05-19T07:32:38.960Z,5.00
2023-05-19T07:33:43.849Z,4.55
2023-05-19T07:34:45.768Z,4.63
2023-05-19T07:35:47.950Z,4.85
2023-05-19T07:36:50.024Z,4.85
2023-05-19T07:37:52.659Z,4.50
2023-05-19T07:38:54.484Z,4.40
2023-05-19T07:39:56.272Z,4.78
2023-05-19T07:40:58.074Z,4.90
2023-05-19T07:41:59.955Z,4.30
2023-05-19T07:43:01.716Z,4.50
2023-05-19T07:44:07.987Z,4.38
2023-05-19T07:45:10.717Z,4.40
2023-05-19T07:46:12.552Z,4.40
2023-05-19T07:47:14.301Z,4.72
2023-05-19T07:48:18.784Z,4.85
2023-05-19T07:49:20.942Z,4.50
2023-05-19T07:50:22.770Z,4.80
2023-05-19T07:51:24.516Z,4.38
2023-05-19T07:52:26.941Z,4.63
2023-05-19T07:53:28.718Z,4.50
2023-05-19T07:54:30.481Z,4.68
2023-05-19T07:55:32.307Z,4.40
2023-05-19T07:56:34.093Z,5.18
2023-05-19T07:57:35.884Z,4.78
2023-05-19T07:58:37.624Z,5.20
2023-05-19T07:59:39.465Z,4.85
2023-05-19T08:00:46.351Z,4.57
2023-05-19T08:01:48.150Z,5.18
2023-05-19T08:02:50.019Z,5.18
2023-05-19T08:03:51.959Z,5.50
2023-05-19T08:04:54.340Z,5.22
2023-05-19T08:05:56.514Z,5.07
2023-05-19T08:06:58.370Z,5.25
2023-05-19T08:08:00.141Z,5.07
2023-05-19T08:09:02.064Z,5.38
2023-05-19T08:10:04.382Z,4.65
2023-05-19T08:11:06.779Z,4.68
2023-05-19T08:12:08.542Z,4.50
2023-05-19T08:13:10.608Z,5.10
2023-05-19T08:14:12.664Z,4.85
2023-05-19T08:15:14.470Z,4.57
2023-05-19T08:16:16.789Z,5.00
2023-05-19T08:17:18.660Z,5.50
2023-05-19T08:18:20.831Z,4.70
2023-05-19T08:19:22.776Z,4.90
2023-05-19T08:20:24.752Z,5.15
2023-05-19T08:21:26.497Z,4.85
2023-05-19T08:22:31.350Z,4.97
2023-05-19T08:23:33.746Z,4.82
2023-05-19T08:24:35.532Z,4.78
2023-05-19T08:25:37.287Z,5.35
2023-05-19T08:26:39.151Z,4.78
2023-05-19T08:27:40.885Z,5.22
2023-05-19T08:28:42.704Z,5.15
2023-05-19T08:29:44.600Z,4.97
2023-05-19T08:30:46.387Z,5.05
2023-05-19T08:31:48.252Z,5.28
2023-05-19T08:32:50.094Z,5.50
2023-05-19T08:33:52.367Z,5.18
2023-05-19T08:34:54.231Z,5.10
2023-05-19T08:35:58.269Z,5.55
2023-05-19T08:37:00.179Z,4.93
2023-05-19T08:38:01.920Z,5.65
2023-05-19T08:39:03.749Z,5.35
2023-05-19T08:40:06.522Z,5.18
2023-05-19T08:41:08.895Z,5.55
2023-05-19T08:42:11.624Z,5.57
2023-05-19T08:43:13.385Z,5.00
2023-05-19T08:44:16.589Z,5.78
2023-05-19T08:45:20.002Z,5.90
2023-05-19T08:46:25.124Z,6.10
2023-05-19T08:47:28.101Z,5.88
2023-05-19T08:48:31.421Z,5.63
2023-05-19T08:49:35.738Z,6.25
2023-05-19T08:50:42.121Z,6.22
2023-05-19T08:51:56.248Z,6.07
2023-05-19T08:53:31.385Z,6.13
2023-05-19T08:54:44.903Z,5.43
2023-05-19T08:56:13.758Z,5.60
2023-05-19T08:57:15.644Z,5.95
2023-05-19T08:58:20.527Z,5.85
2023-05-19T08:59:22.905Z,5.82
2023-05-19T09:00:25.762Z,5.85
2023-05-19T09:01:28.989Z,6.03
2023-05-19T09:02:31.072Z,6.00
2023-05-19T09:03:38.233Z,5.68
2023-05-19T09:04:42.129Z,6.03
2023-05-19T09:05:44.055Z,6.03
2023-05-19T09:06:45.910Z,6.35
2023-05-19T09:07:48.470Z,5.53
2023-05-19T09:08:50.265Z,5.72
2023-05-19T09:09:52.129Z,6.13
2023-05-19T09:10:53.876Z,5.55
2023-05-19T09:11:56.104Z,5.97
2023-05-19T09:12:57.912Z,6.10
2023-05-19T09:13:59.702Z,6.53
2023-05-19T09:15:02.855Z,6.18
2023-05-19T09:16:05.538Z,6.05
2023-05-19T09:17:07.480Z,5.63
2023-05-19T09:18:14.185Z,5.80
2023-05-19T09:19:16.225Z,5.88
2023-05-19T09:20:18.569Z,5.88
2023-05-19T09:21:20.649Z,5.80
2023-05-19T09:22:22.448Z,6.03
2023-05-19T09:23:25.067Z,5.82
2023-05-19T09:24:27.612Z,5.65
2023-05-19T09:25:29.376Z,5.85
2023-05-19T09:26:42.494Z,6.50
2023-05-19T09:27:44.235Z,6.05
2023-05-19T09:28:47.941Z,6.13
2023-05-19T09:29:51.037Z,6.40
2023-05-19T09:31:19.480Z,6.22
2023-05-19T09:32:28.654Z,6.80
2023-05-19T09:33:32.683Z,5.72
2023-05-19T09:34:34.458Z,6.55
2023-05-19T09:35:37.108Z,6.15
2023-05-19T09:36:41.570Z,6.13
2023-05-19T09:37:44.224Z,6.00
2023-05-19T09:38:46.402Z,6.45
2023-05-19T09:39:52.151Z,6.53
2023-05-19T09:40:59.795Z,5.80
2023-05-19T09:42:04.931Z,6.30
2023-05-19T09:43:08.709Z,6.63
2023-05-19T09:44:24.027Z,6.68
2023-05-19T09:45:27.437Z,7.13
2023-05-19T09:46:30.411Z,6.40
2023-05-19T09:47:41.536Z,6.28
2023-05-19T09:48:43.972Z,6.03
2023-05-19T09:49:48.548Z,6.28
2023-05-19T09:50:51.850Z,6.40
2023-05-19T09:51:57.255Z,6.43
2023-05-19T09:52:59.808Z,6.38
2023-05-19T09:54:01.648Z,6.28
2023-05-19T09:55:05.557Z,6.15
2023-05-19T09:56:08.965Z,6.57
2023-05-19T09:57:10.796Z,6.95
2023-05-19T09:58:18.198Z,6.85
2023-05-19T09:59:24.161Z,7.20
2023-05-19T10:00:27.370Z,6.55
2023-05-19T10:01:31.658Z,6.15
2023-05-19T10:02:33.672Z,6.30
2023-05-19T10:03:36.899Z,6.82
2023-05-19T10:04:39.002Z,6.10
2023-05-19T10:05:42.153Z,6.80
2023-05-19T10:06:44.637Z,6.43
2023-05-19T10:07:51.710Z,6.55
2023-05-19T10:08:57.283Z,6.82
2023-05-19T10:10:01.829Z,7.10
2023-05-19T10:11:03.670Z,7.53
2023-05-19T10:12:08.054Z,7.10
2023-05-19T10:13:10.555Z,7.07
2023-05-19T10:14:12.367Z,6.78
2023-05-19T10:15:15.712Z,6.88
2023-05-19T10:16:18.538Z,6.45
2023-05-19T10:17:21.492Z,7.03
2023-05-19T10:18:23.844Z,7.15
2023-05-19T10:19:29.811Z,7.00
2023-05-19T10:20:37.382Z,6.85
2023-05-19T10:21:40.598Z,6.47
2023-05-19T10:22:44.690Z,7.28
2023-05-19T10:23:46.503Z,6.45
2023-05-19T10:24:48.292Z,6.57
2023-05-19T10:25:53.753Z,7.07
2023-05-19T10:26:59.920Z,6.72
2023-05-19T10:28:07.999Z,6.70
2023-05-19T10:29:10.823Z,6.88
2023-05-19T10:30:20.736Z,7.13
2023-05-19T10:31:24.556Z,7.45
2023-05-19T10:32:31.193Z,6.75
2023-05-19T10:34:00.549Z,6.68
2023-05-19T10:35:28.715Z,6.90
2023-05-19T10:36:48.000Z,7.28
2023-05-19T10:38:17.204Z,6.82
2023-05-19T10:39:37.646Z,7.30
2023-05-19T10:40:52.661Z,7.18
2023-05-19T10:41:54.342Z,7.43
2023-05-19T10:43:14.254Z,7.43
2023-05-19T10:44:40.414Z,7.00
2023-05-19T10:45:49.520Z,7.20
2023-05-19T10:46:51.373Z,7.03
2023-05-19T10:47:54.750Z,7.10
2023-05-19T10:48:56.725Z,7.45
2023-05-19T10:50:01.222Z,7.20
2023-05-19T10:51:03.849Z,6.85
2023-05-19T10:52:20.339Z,6.65
2023-05-19T10:53:22.998Z,6.72
2023-05-19T10:54:43.617Z,6.90
2023-05-19T10:55:53.264Z,6.95
2023-05-19T10:56:58.064Z,7.35
2023-05-19T10:58:00.650Z,7.65
2023-05-19T10:59:03.653Z,7.20
2023-05-19T11:00:29.646Z,7.63
2023-05-19T11:01:33.789Z,7.80
2023-05-19T11:02:45.134Z,7.68
2023-05-19T11:03:55.059Z,6.35
2023-05-19T11:05:13.017Z,6.15
2023-05-19T11:06:41.422Z,5.10
2023-05-19T11:08:06.212Z,5.78
2023-05-19T11:09:17.432Z,6.25
2023-05-19T11:10:23.836Z,6.40
2023-05-19T11:11:26.944Z,6.22
2023-05-19T11:12:28.939Z,6.78
2023-05-19T11:13:31.473Z,6.07
2023-05-19T11:14:34.928Z,6.95
2023-05-19T11:15:37.500Z,6.05
2023-05-19T11:16:45.921Z,6.72
2023-05-19T11:17:50.652Z,6.60
2023-05-19T11:18:54.670Z,6.38
2023-05-19T11:19:57.853Z,6.22
2023-05-19T11:21:02.583Z,6.38
2023-05-19T11:22:12.733Z,6.20
2023-05-19T11:23:20.404Z,5.78
2023-05-19T11:24:44.659Z,6.47
2023-05-19T11:25:51.663Z,6.72
2023-05-19T11:26:54.950Z,6.43
2023-05-19T11:27:56.931Z,6.38
2023-05-19T11:28:58.730Z,6.68
2023-05-19T11:30:20.217Z,6.68
2023-05-19T11:31:23.209Z,6.45
2023-05-19T11:32:36.086Z,6.90
2023-05-19T11:33:38.131Z,6.25
2023-05-19T11:34:40.580Z,6.55
2023-05-19T11:35:43.780Z,6.05
2023-05-19T11:36:46.205Z,6.35
2023-05-19T11:37:50.714Z,6.35
2023-05-19T11:38:52.850Z,6.03
2023-05-19T11:39:54.830Z,5.30
2023-05-19T11:40:57.073Z,6.00
2023-05-19T11:41:59.139Z,5.88
2023-05-19T11:43:02.163Z,5.05
2023-05-19T11:44:03.929Z,4.93
2023-05-19T11:45:06.552Z,4.78
2023-05-19T11:46:12.844Z,3.80
2023-05-19T11:47:15.920Z,4.22
2023-05-19T11:48:21.602Z,4.80
2023-05-19T11:49:23.472Z,4.97
2023-05-19T11:50:26.001Z,6.57
2023-05-19T11:51:27.875Z,6.20
2023-05-19T11:52:29.790Z,5.57
2023-05-19T11:53:33.374Z,5.20
2023-05-19T11:54:37.459Z,5.53
2023-05-19T11:55:46.954Z,6.03
2023-05-19T11:56:49.012Z,6.03
2023-05-19T11:58:05.478Z,6.15
2023-05-19T11:59:08.483Z,7.70
2023-05-19T12:00:12.612Z,7.35
2023-05-19T12:01:14.520Z,7.53
2023-05-19T12:02:19.492Z,6.63
2023-05-19T12:03:23.035Z,6.80
2023-05-19T12:04:24.954Z,7.65
2023-05-19T12:05:28.439Z,7.60
2023-05-19T12:06:30.385Z,7.07
2023-05-19T12:07:32.172Z,7.88
2023-05-19T12:08:35.617Z,7.45
2023-05-19T12:09:37.446Z,9.60
2023-05-19T12:10:40.661Z,12.75
2023-05-19T12:11:42.472Z,11.10
2023-05-19T12:12:45.376Z,10.93
2023-05-19T12:13:51.073Z,8.77
2023-05-19T12:14:53.765Z,8.90
2023-05-19T12:16:00.023Z,8.52
2023-05-19T12:17:21.344Z,8.07
2023-05-19T12:18:23.160Z,8.55
2023-05-19T12:19:26.132Z,7.28
2023-05-19T12:20:32.011Z,10.32
2023-05-19T12:21:34.547Z,9.57
2023-05-19T12:22:37.069Z,8.32
2023-05-19T12:23:39.333Z,8.65
2023-05-19T12:24:43.119Z,9.32
2023-05-19T12:25:46.589Z,8.70
2023-05-19T12:26:50.426Z,10.60
2023-05-19T12:27:56.164Z,9.95
2023-05-19T12:28:59.000Z,7.95
2023-05-19T12:30:00.761Z,5.82
2023-05-19T12:31:02.974Z,6.82
2023-05-19T12:32:04.997Z,7.55
2023-05-19T12:33:08.704Z,7.93
2023-05-19T12:34:13.327Z,7.05
2023-05-19T12:35:15.964Z,7.38
2023-05-19T12:36:18.485Z,8.93
2023-05-19T12:37:20.275Z,7.85
2023-05-19T12:38:23.002Z,6.60
2023-05-19T12:39:24.933Z,6.75
2023-05-19T12:40:30.426Z,7.35
2023-05-19T12:41:32.377Z,7.55
2023-05-19T12:42:35.484Z,7.00
2023-05-19T12:43:37.928Z,7.13
2023-05-19T12:44:50.129Z,6.70
2023-05-19T12:45:52.563Z,7.18
2023-05-19T12:46:54.498Z,6.60
2023-05-19T12:47:56.847Z,7.10
2023-05-19T12:49:01.584Z,6.90
2023-05-19T12:50:08.821Z,6.93
2023-05-19T12:51:20.284Z,7.30
2023-05-19T12:52:23.481Z,7.10
2023-05-19T12:53:27.345Z,6.75
2023-05-19T12:54:34.232Z,6.40
2023-05-19T12:55:43.677Z,6.72
2023-05-19T12:56:52.161Z,7.00
2023-05-19T12:57:57.371Z,6.15
2023-05-19T12:59:01.893Z,7.88
2023-05-19T13:00:22.832Z,6.22
2023-05-19T13:01:24.789Z,6.32
2023-05-19T13:02:26.784Z,6.63
2023-05-19T13:03:28.822Z,6.78
2023-05-19T13:04:30.849Z,6.70
2023-05-19T13:05:35.240Z,6.50
2023-05-19T13:06:37.015Z,6.30
2023-05-19T13:07:38.814Z,6.60
2023-05-19T13:08:44.253Z,6.53
2023-05-19T13:09:46.053Z,6.38
2023-05-19T13:10:49.296Z,7.00
2023-05-19T13:11:52.275Z,6.40
2023-05-19T13:12:58.867Z,6.63
2023-05-19T13:14:00.638Z,6.80
2023-05-19T13:15:02.390Z,6.10
2023-05-19T13:16:04.771Z,6.57
2023-05-19T13:17:06.637Z,6.55
2023-05-19T13:18:10.355Z,6.13
2023-05-19T13:19:25.324Z,6.90
2023-05-19T13:20:28.762Z,6.88
2023-05-19T13:21:30.592Z,6.28
2023-05-19T13:22:32.338Z,6.15
2023-05-19T13:23:34.978Z,6.25
2023-05-19T13:24:36.849Z,6.22
2023-05-19T13:25:39.034Z,6.57
2023-05-19T13:26:41.738Z,6.20
2023-05-19T13:27:46.026Z,6.43
2023-05-19T13:28:48.044Z,6.13
2023-05-19T13:29:49.805Z,6.50
2023-05-19T13:30:52.285Z,6.10
2023-05-19T13:31:54.138Z,6.43
2023-05-19T13:32:56.108Z,5.75
2023-05-19T13:33:57.897Z,5.57
2023-05-19T13:35:01.933Z,6.32
2023-05-19T13:36:03.886Z,6.78
2023-05-19T13:37:07.020Z,6.72
2023-05-19T13:38:10.645Z,6.07
2023-05-19T13:39:15.726Z,5.85
2023-05-19T13:40:17.824Z,6.70
2023-05-19T13:41:26.347Z,5.63
2023-05-19T13:42:28.304Z,6.15
2023-05-19T13:43:30.022Z,6.53
2023-05-19T13:44:33.585Z,5.85
2023-05-19T13:45:35.513Z,6.28
2023-05-19T13:47:45.651Z,6.18
2023-05-19T13:48:47.438Z,6.40
2023-05-19T13:49:49.360Z,6.57
2023-05-19T13:50:52.714Z,6.05
2023-05-19T13:51:58.479Z,6.47
2023-05-19T13:53:00.300Z,6.60
2023-05-19T13:54:02.901Z,6.68
2023-05-19T13:55:06.289Z,6.22
2023-05-19T13:56:08.424Z,6.85
2023-05-19T13:57:10.250Z,6.78
2023-05-19T13:58:13.814Z,6.22
2023-05-19T13:59:17.383Z,6.65
2023-05-19T14:00:19.529Z,7.30
2023-05-19T14:01:21.413Z,6.25
2023-05-19T14:02:23.289Z,6.13
2023-05-19T14:03:25.326Z,6.45
2023-05-19T14:04:27.181Z,5.38
2023-05-19T14:05:29.206Z,6.50
2023-05-19T14:06:31.302Z,6.50
2023-05-19T14:07:35.128Z,6.10
2023-05-19T14:08:37.206Z,6.30
2023-05-19T14:09:38.951Z,6.20
2023-05-19T14:10:42.264Z,6.72
2023-05-19T14:11:44.153Z,6.20
2023-05-19T14:13:12.211Z,6.55
2023-05-19T14:14:09.337Z,6.57
2023-05-19T14:15:12.430Z,6.20